Time;durP1;ratioP1;P1;durP2;ratioP2;P2;SDS_P1;SDS_P2;PMS_P1;PMS_P2;Temp;Humidity;BMP_temperature;BMP_pressure;BME280_temperature;BME280_humidity;BME280_pressure;Samples;Min_cycle;Max_cycle;Signal;HPM_P1;HPM_P2
2024/01/03 00:01:34;;;;;;;20.00;18.10;;;;;;;3.50;81.90;94587.34;5036927;28;20202;-71
2024/01/03 00:04:01;;;;;;;16.70;15.20;;;;;;;3.59;82.29;94584.63;5037978;28;20197;-71
2024/01/03 00:06:34;;;;;;;16.95;15.45;;;;;;;3.66;82.51;94581.41;5054313;27;20198;-71
2024/01/03 00:09:08;;;;;;;16.52;15.00;;;;;;;3.64;82.11;94589.94;5036952;28;20618;-71
2024/01/03 00:11:34;;;;;;;15.20;13.90;;;;;;;3.68;82.36;94585.44;5036663;28;20205;-71
2024/01/03 00:14:06;;;;;;;15.70;14.30;;;;;;;3.73;82.50;94593.44;5037421;28;20226;-71
2024/01/03 00:16:35;;;;;;;13.88;12.57;;;;;;;3.77;82.50;94591.69;5037403;28;20254;-71
2024/01/03 00:19:03;;;;;;;13.45;12.25;;;;;;;3.85;82.49;94582.72;5037064;28;20218;-71
2024/01/03 00:21:30;;;;;;;14.40;13.20;;;;;;;3.90;82.50;94594.59;5037118;28;20202;-70
2024/01/03 00:23:59;;;;;;;14.07;12.80;;;;;;;3.92;82.78;94590.41;5037109;28;20305;-70
2024/01/03 00:26:33;;;;;;;13.75;12.55;;;;;;;3.89;82.61;94593.00;5036465;28;20201;-71
2024/01/03 00:29:03;;;;;;;13.85;12.63;;;;;;;3.87;82.63;94590.56;5036821;28;20209;-71
2024/01/03 00:31:41;;;;;;;15.00;13.65;;;;;;;3.83;82.41;94600.53;5036520;28;20634;-71
2024/01/03 00:34:32;;;;;;;15.30;13.85;;;;;;;3.76;81.81;94587.34;5036828;28;20206;-70
2024/01/03 00:37:02;;;;;;;15.32;13.90;;;;;;;3.65;81.93;94577.09;5021208;28;20194;-71
2024/01/03 00:39:36;;;;;;;15.02;13.50;;;;;;;3.59;82.25;94587.34;5036234;28;20318;-71
2024/01/03 00:42:04;;;;;;;14.77;13.48;;;;;;;3.53;82.19;94592.16;5053667;28;20190;-71
2024/01/03 00:44:35;;;;;;;14.05;12.75;;;;;;;3.48;82.38;94586.06;5036477;28;20262;-71
2024/01/03 00:47:02;;;;;;;14.07;12.82;;;;;;;3.49;82.90;94583.03;5036339;28;20206;-71
2024/01/03 00:49:34;;;;;;;13.75;12.55;;;;;;;3.56;82.90;94577.91;5036879;28;20309;-71
2024/01/03 00:52:04;;;;;;;14.13;12.90;;;;;;;3.66;83.33;94587.66;5036730;28;20210;-71
2024/01/03 00:54:31;;;;;;;14.88;13.38;;;;;;;3.65;82.97;94585.28;5036648;28;20254;-71
2024/01/03 00:57:01;;;;;;;14.30;13.13;;;;;;;3.54;82.40;94584.78;5053938;28;20254;-71
2024/01/03 00:59:34;;;;;;;14.90;13.55;;;;;;;3.47;82.25;94589.91;5035454;28;20230;-71
2024/01/03 01:02:04;;;;;;;13.80;12.60;;;;;;;3.42;81.91;94596.34;5036267;28;20537;-71
2024/01/03 01:04:34;;;;;;;14.05;12.95;;;;;;;3.45;82.53;94592.16;5036399;28;20213;-72
2024/01/03 01:07:02;;;;;;;14.23;13.02;;;;;;;3.50;82.65;94595.53;5039114;27;20229;-72
2024/01/03 01:09:29;;;;;;;13.88;12.77;;;;;;;3.53;82.97;94573.09;5053652;28;20194;-72
2024/01/03 01:12:00;;;;;;;13.65;12.45;;;;;;;3.55;82.67;94583.66;5053278;28;20186;-71
2024/01/03 01:14:27;;;;;;;13.88;12.57;;;;;;;3.59;82.95;94595.53;5053843;28;20273;-72
2024/01/03 01:16:55;;;;;;;12.95;11.82;;;;;;;3.64;83.42;94576.31;5052453;28;20197;-71
2024/01/03 01:19:23;;;;;;;13.35;12.25;;;;;;;3.69;83.44;94570.66;5053209;28;20205;-71
2024/01/03 01:21:58;;;;;;;13.70;12.50;;;;;;;3.67;83.16;94566.66;5054212;28;20247;-71
2024/01/03 01:24:25;;;;;;;13.18;12.05;;;;;;;3.64;82.86;94559.13;5052646;28;20216;-70
2024/01/03 01:26:52;;;;;;;13.38;12.27;;;;;;;3.68;82.76;94569.06;5053382;28;20209;-71
2024/01/03 01:29:20;;;;;;;13.27;12.18;;;;;;;3.67;82.92;94570.22;5052196;28;20202;-71
2024/01/03 01:31:48;;;;;;;13.48;12.38;;;;;;;3.62;82.38;94565.69;5052939;28;20193;-71
2024/01/03 01:34:17;;;;;;;12.30;11.30;;;;;;;3.67;83.05;94562.03;5052276;28;20397;-71
2024/01/03 01:36:45;;;;;;;13.20;12.10;;;;;;;3.69;82.80;94553.50;5051735;28;20237;-71
2024/01/03 01:39:14;;;;;;;11.68;10.70;;;;;;;3.76;83.39;94549.16;5053127;28;20274;-70
2024/01/03 01:41:43;;;;;;;12.93;11.93;;;;;;;3.82;83.50;94558.78;5051894;28;20194;-70
2024/01/03 01:44:11;;;;;;;13.00;11.95;;;;;;;3.89;83.84;94557.53;5052191;28;20201;-70
2024/01/03 01:46:39;;;;;;;12.32;11.32;;;;;;;3.97;83.76;94565.69;5052076;28;20250;-70
2024/01/03 01:49:10;;;;;;;12.18;11.18;;;;;;;4.02;83.81;94562.78;5052089;28;20208;-70
2024/01/03 01:51:40;;;;;;;12.95;11.85;;;;;;;4.04;83.70;94559.75;5052522;28;20198;-71
2024/01/03 01:54:10;;;;;;;12.32;11.32;;;;;;;3.99;83.64;94549.78;5051605;28;20210;-71
2024/01/03 01:56:40;;;;;;;12.63;11.43;;;;;;;3.93;83.12;94553.81;5051666;28;20202;-71
2024/01/03 01:59:08;;;;;;;13.13;12.02;;;;;;;3.80;82.56;94563.75;5052363;28;20241;-71
2024/01/03 02:01:38;;;;;;;12.05;11.05;;;;;;;3.75;82.53;94549.50;5052775;28;20258;-71
2024/01/03 02:04:07;;;;;;;12.48;11.38;;;;;;;3.70;82.82;94553.16;5051633;28;20210;-71
2024/01/03 02:06:35;;;;;;;12.45;11.35;;;;;;;3.69;82.91;94558.97;5067260;27;20253;-72
2024/01/03 02:09:08;;;;;;;12.98;11.88;;;;;;;3.62;83.30;94552.06;5143147;27;20292;-72
2024/01/03 02:11:48;;;;;;;12.35;11.35;;;;;;;3.61;82.94;94568.75;5142838;27;20218;-72
2024/01/03 02:14:16;;;;;;;12.55;11.52;;;;;;;3.53;83.23;94572.28;5150888;27;20205;-71
2024/01/03 02:16:44;;;;;;;12.68;11.57;;;;;;;3.48;83.28;94570.50;5160344;27;20190;-71
2024/01/03 02:19:11;;;;;;;12.02;11.02;;;;;;;3.45;82.88;94567.59;5160737;27;20210;-70
2024/01/03 02:21:44;;;;;;;12.57;11.52;;;;;;;3.39;82.90;94566.97;5160476;27;20210;-71
2024/01/03 02:24:13;;;;;;;12.02;11.02;;;;;;;3.41;83.41;94550.28;5177941;27;20188;-70
2024/01/03 02:26:41;;;;;;;12.48;11.48;;;;;;;3.41;83.69;94553.81;5159619;27;20193;-71
2024/01/03 02:29:08;;;;;;;12.27;11.27;;;;;;;3.42;83.49;94546.47;5159855;27;20201;-71
2024/01/03 02:31:36;;;;;;;13.27;12.18;;;;;;;3.44;83.50;94544.19;5159808;27;20226;-71
2024/01/03 02:34:03;;;;;;;13.35;12.25;;;;;;;3.45;83.75;94527.53;5160320;27;20190;-70
2024/01/03 02:36:32;;;;;;;12.80;11.80;;;;;;;3.41;82.98;94532.00;5159298;27;20637;-71
2024/01/03 02:39:04;;;;;;;13.23;12.15;;;;;;;3.41;83.40;94533.94;5160108;27;20205;-71
2024/01/03 02:41:32;;;;;;;12.85;11.75;;;;;;;3.43;83.56;94537.94;5159261;27;20193;-71
2024/01/03 02:44:01;;;;;;;13.55;12.45;;;;;;;3.52;83.71;94527.03;5159831;27;20193;-71
2024/01/03 02:46:29;;;;;;;13.25;11.98;;;;;;;3.60;84.02;94521.59;5159762;27;20305;-71
2024/01/03 02:48:58;;;;;;;13.07;12.07;;;;;;;3.70;84.29;94523.16;5159238;27;20493;-71
2024/01/03 02:51:28;;;;;;;13.23;12.13;;;;;;;3.77;84.51;94518.03;5159350;27;20230;-71
2024/01/03 02:53:57;;;;;;;13.50;12.38;;;;;;;3.84;84.44;94518.34;5159532;27;20182;-70
2024/01/03 02:56:28;;;;;;;13.65;12.45;;;;;;;3.92;84.28;94518.66;5160061;27;20190;-70
2024/01/03 02:58:55;;;;;;;13.40;12.20;;;;;;;3.97;84.20;94519.28;5159518;27;20225;-71
2024/01/03 03:01:22;;;;;;;13.27;12.10;;;;;;;4.04;84.41;94518.81;5160169;27;20609;-70
2024/01/03 03:03:49;;;;;;;13.93;12.82;;;;;;;4.00;83.17;94520.59;5178217;27;20212;-70
2024/01/03 03:06:18;;;;;;;13.73;12.52;;;;;;;3.93;83.85;94506.63;5153487;27;20202;-71
2024/01/03 03:08:45;;;;;;;13.65;12.52;;;;;;;3.95;83.59;94518.00;5136535;27;20203;-70
2024/01/03 03:11:14;;;;;;;13.63;12.52;;;;;;;3.92;83.71;94513.19;5130924;28;20198;-70
2024/01/03 03:13:44;;;;;;;13.70;12.57;;;;;;;3.84;83.87;94518.34;5052709;28;20261;-70
2024/01/03 03:16:13;;;;;;;13.93;12.63;;;;;;;3.86;83.95;94507.13;5122022;28;20186;-70
2024/01/03 03:18:41;;;;;;;14.13;12.90;;;;;;;3.89;84.27;94511.94;5120958;28;20570;-70
2024/01/03 03:21:10;;;;;;;15.45;14.05;;;;;;;3.94;84.42;94506.28;5121511;28;20242;-70
2024/01/03 03:23:40;;;;;;;16.40;14.85;;;;;;;4.00;84.44;94504.22;5123149;27;20194;-70
2024/01/03 03:26:10;;;;;;;18.70;16.90;;;;;;;3.98;83.92;94509.19;5124985;27;20204;-70
2024/01/03 03:28:37;;;;;;;16.02;14.63;;;;;;;3.92;84.05;94510.47;5124323;27;20192;-70
2024/01/03 03:31:06;;;;;;;18.00;16.38;;;;;;;3.88;84.29;94491.22;5124925;27;20270;-69
2024/01/03 03:33:36;;;;;;;15.45;14.05;;;;;;;3.91;84.57;94489.78;5124370;27;20694;-70
2024/01/03 03:36:12;;;;;;;14.38;13.07;;;;;;;3.97;84.45;94486.56;5124234;27;20194;-70
2024/01/03 03:38:41;;;;;;;15.60;14.27;;;;;;;4.01;84.38;94481.25;5125053;27;20286;-70
2024/01/03 03:41:10;;;;;;;14.73;13.43;;;;;;;4.01;84.42;94484.78;5125078;27;20206;-69
2024/01/03 03:43:40;;;;;;;14.68;13.38;;;;;;;3.99;84.48;94476.09;5124947;27;20190;-69
2024/01/03 03:46:13;;;;;;;14.15;12.95;;;;;;;3.96;83.83;94476.78;5124329;27;20205;-70
2024/01/03 03:48:41;;;;;;;15.43;14.02;;;;;;;3.94;84.32;94489.91;5124468;27;20213;-70
2024/01/03 03:51:08;;;;;;;16.50;14.88;;;;;;;3.95;84.37;94475.16;5124689;27;20224;-70
2024/01/03 03:53:39;;;;;;;14.70;13.50;;;;;;;3.97;84.67;94474.84;5124156;27;20205;-70
2024/01/03 03:56:07;;;;;;;14.75;13.45;;;;;;;4.00;84.90;94469.53;5125101;27;20198;-70
2024/01/03 03:58:36;;;;;;;14.63;13.35;;;;;;;3.97;84.68;94470.19;5124123;27;20681;-70
2024/01/03 04:01:03;;;;;;;14.95;13.60;;;;;;;3.92;84.39;94486.72;5123988;27;20281;-70
2024/01/03 04:03:32;;;;;;;14.50;13.25;;;;;;;3.91;84.69;94484.31;5124520;27;20194;-70
2024/01/03 04:06:03;;;;;;;15.18;13.82;;;;;;;3.92;84.72;94491.38;5124100;27;20567;-70
2024/01/03 04:08:30;;;;;;;15.13;13.90;;;;;;;3.94;85.14;94481.75;5138826;27;20235;-70
2024/01/03 04:10:57;;;;;;;14.15;12.88;;;;;;;3.99;85.54;94469.84;5138410;27;20203;-70
2024/01/03 04:13:25;;;;;;;17.27;15.57;;;;;;;4.02;85.08;94470.00;5137839;27;20203;-70
2024/01/03 04:15:54;;;;;;;26.63;22.95;;;;;;;4.05;84.91;94488.44;5137915;27;20191;-70
2024/01/03 04:18:21;;;;;;;26.15;23.25;;;;;;;4.00;84.64;94491.38;5139009;27;20624;-70
2024/01/03 04:20:53;;;;;;;20.52;18.63;;;;;;;3.99;84.69;94492.47;5138522;27;20512;-70
2024/01/03 04:23:21;;;;;;;19.10;17.20;;;;;;;4.02;84.78;94493.75;5138921;27;20179;-70
2024/01/03 04:25:49;;;;;;;16.17;14.68;;;;;;;4.04;85.11;94486.06;5137667;27;20195;-70
2024/01/03 04:28:16;;;;;;;14.82;13.50;;;;;;;4.10;85.69;94499.19;5138481;27;20221;-70
2024/01/03 04:30:43;;;;;;;15.35;13.95;;;;;;;4.17;85.34;94503.34;5138302;27;20199;-70
2024/01/03 04:33:15;;;;;;;15.85;14.45;;;;;;;4.20;85.33;94506.22;5138311;27;20259;-70
2024/01/03 04:35:42;;;;;;;15.00;13.80;;;;;;;4.21;85.38;94512.47;5136979;27;20195;-70
2024/01/03 04:38:14;;;;;;;14.93;13.50;;;;;;;4.21;85.17;94501.56;5138517;27;20191;-70
2024/01/03 04:40:43;;;;;;;14.25;12.95;;;;;;;4.24;85.58;94503.63;5138171;27;20295;-70
2024/01/03 04:43:12;;;;;;;14.68;13.45;;;;;;;4.24;85.21;94498.97;5137667;27;20203;-70
2024/01/03 04:45:39;;;;;;;14.38;13.18;;;;;;;4.25;85.74;94492.41;5138423;27;20203;-70
2024/01/03 04:48:14;;;;;;;13.27;12.18;;;;;;;4.30;85.20;94499.63;5137559;27;20248;-70
2024/01/03 04:50:41;;;;;;;13.25;12.10;;;;;;;4.31;85.13;94502.00;5137302;27;20227;-70
2024/01/03 04:53:08;;;;;;;13.82;12.63;;;;;;;4.34;85.05;94498.63;5138065;27;20198;-70
2024/01/03 04:55:39;;;;;;;16.85;15.35;;;;;;;4.24;84.68;94488.06;5137126;27;20256;-70
2024/01/03 04:58:07;;;;;;;16.83;15.32;;;;;;;4.09;84.14;94508.50;5137864;27;20201;-70
2024/01/03 05:00:36;;;;;;;17.73;16.13;;;;;;;3.99;83.81;94497.13;5137463;27;20244;-70
2024/01/03 05:03:03;;;;;;;18.55;16.95;;;;;;;3.96;84.50;94487.69;5137095;27;20210;-70
2024/01/03 05:05:31;;;;;;;19.27;17.58;;;;;;;3.95;84.77;94493.44;5137078;27;20231;-70
2024/01/03 05:08:01;;;;;;;18.83;17.20;;;;;;;3.94;84.52;94500.03;5138398;27;20222;-70
2024/01/03 05:10:30;;;;;;;18.05;16.45;;;;;;;3.94;84.72;94489.13;5140639;27;20198;-70
2024/01/03 05:12:59;;;;;;;17.45;16.00;;;;;;;3.96;84.90;94481.41;5141196;27;20205;-70
2024/01/03 05:15:26;;;;;;;16.73;15.32;;;;;;;3.98;84.97;94493.59;5141627;27;20258;-70
2024/01/03 05:17:53;;;;;;;16.02;14.73;;;;;;;4.04;85.29;94478.66;5141388;27;20195;-70
2024/01/03 05:20:21;;;;;;;15.88;14.50;;;;;;;4.12;85.07;94477.03;5141846;27;20262;-70
2024/01/03 05:22:51;;;;;;;15.75;14.35;;;;;;;4.20;85.24;94478.91;5141499;27;20194;-70
2024/01/03 05:25:21;;;;;;;15.13;13.77;;;;;;;4.27;85.16;94483.88;5140835;27;20312;-70
2024/01/03 05:27:48;;;;;;;15.48;14.02;;;;;;;4.27;85.18;94481.94;5140453;27;20194;-70
2024/01/03 05:30:19;;;;;;;16.88;15.38;;;;;;;4.24;84.67;94487.25;5139883;27;20247;-70
2024/01/03 05:32:46;;;;;;;18.95;17.27;;;;;;;4.19;84.43;94492.91;5140519;27;20201;-70
2024/01/03 05:35:15;;;;;;;22.30;20.30;;;;;;;4.12;84.45;94485.22;5140243;27;20190;-70
2024/01/03 05:37:42;;;;;;;30.63;27.63;;;;;;;4.08;84.48;94495.19;5140150;27;20191;-69
2024/01/03 05:40:10;;;;;;;31.27;28.20;;;;;;;4.05;84.73;94504.81;5139739;27;20263;-70
2024/01/03 05:42:37;;;;;;;32.22;29.23;;;;;;;4.02;84.95;94500.00;5139827;27;20198;-70
2024/01/03 05:45:07;;;;;;;31.10;28.15;;;;;;;4.03;84.81;94489.88;5139989;27;20197;-70
2024/01/03 05:47:38;;;;;;;30.42;27.55;;;;;;;4.09;84.77;94492.13;5132272;27;20195;-70
2024/01/03 05:50:10;;;;;;;26.15;23.73;;;;;;;4.15;84.75;94491.97;5140184;27;20226;-70
2024/01/03 05:52:37;;;;;;;23.88;21.58;;;;;;;4.16;84.90;94497.09;5140320;27;20186;-69
2024/01/03 05:55:06;;;;;;;24.95;22.55;;;;;;;4.15;84.23;94494.69;5139277;27;20246;-69
2024/01/03 05:57:36;;;;;;;25.58;23.20;;;;;;;4.09;83.97;94489.38;5139511;27;20186;-69
2024/01/03 06:00:04;;;;;;;25.65;23.35;;;;;;;4.07;83.76;94493.59;5139781;27;20298;-69
2024/01/03 06:02:33;;;;;;;28.10;25.50;;;;;;;4.03;83.37;94500.81;5138812;27;20261;-69
2024/01/03 06:05:01;;;;;;;26.30;24.15;;;;;;;3.99;83.23;94491.66;5140006;27;20262;-69
2024/01/03 06:07:29;;;;;;;28.38;25.67;;;;;;;3.98;83.01;94487.34;5121256;27;20732;-69
2024/01/03 06:09:58;;;;;;;29.00;26.40;;;;;;;3.88;82.06;94490.41;5051614;28;20206;-69
2024/01/03 06:12:28;;;;;;;29.83;26.90;;;;;;;3.76;81.91;94493.81;5051527;28;20228;-69
2024/01/03 06:14:57;;;;;;;24.30;22.20;;;;;;;3.68;82.17;94503.63;5052490;28;20238;-69
2024/01/03 06:17:28;;;;;;;24.85;22.60;;;;;;;3.66;82.19;94510.50;5051127;28;20205;-70
2024/01/03 06:20:03;;;;;;;23.30;21.20;;;;;;;3.62;82.49;94510.34;5051261;28;20221;-70
2024/01/03 06:23:03;;;;;;;22.52;20.48;;;;;;;3.58;82.44;94502.00;5051508;28;20225;-69
2024/01/03 06:25:37;;;;;;;20.27;18.40;;;;;;;3.63;83.17;94514.69;5051603;28;20212;-70
2024/01/03 06:28:07;;;;;;;19.92;18.05;;;;;;;3.73;83.14;94500.72;5051441;28;20506;-69
2024/01/03 06:30:35;;;;;;;20.08;18.17;;;;;;;3.76;83.08;94521.09;5051146;28;20197;-73
2024/01/03 06:33:05;;;;;;;20.23;18.42;;;;;;;3.76;83.45;94502.78;5051906;28;20196;-69
2024/01/03 06:35:33;;;;;;;19.15;17.42;;;;;;;3.78;83.19;94499.75;5050711;28;20201;-72
2024/01/03 06:38:03;;;;;;;19.40;17.67;;;;;;;3.81;83.46;94480.00;5050949;28;20212;-72
2024/01/03 06:40:35;;;;;;;18.92;17.13;;;;;;;3.84;83.43;94466.50;5050811;28;20274;-73
2024/01/03 06:43:06;;;;;;;18.80;17.10;;;;;;;3.85;83.55;94484.50;5052082;28;20254;-72
2024/01/03 06:45:35;;;;;;;18.38;16.77;;;;;;;3.90;83.75;94480.78;5050482;28;20613;-73
2024/01/03 06:48:03;;;;;;;18.25;16.58;;;;;;;3.96;83.70;94486.84;5050705;28;20613;-71
2024/01/03 06:50:33;;;;;;;19.17;17.40;;;;;;;4.00;83.60;94483.19;5051839;28;20570;-73
2024/01/03 06:53:09;;;;;;;19.30;17.60;;;;;;;4.02;83.97;94497.28;5050994;28;20244;-72
2024/01/03 06:55:40;;;;;;;18.38;16.77;;;;;;;4.12;84.04;94489.88;5051056;28;20196;-73
2024/01/03 06:58:09;;;;;;;18.52;16.90;;;;;;;4.15;83.87;94495.50;5051516;28;20213;-74
2024/01/03 07:00:38;;;;;;;17.42;16.00;;;;;;;4.17;83.84;94482.31;5054298;28;20221;-73
2024/01/03 07:03:06;;;;;;;18.55;16.85;;;;;;;4.20;83.94;94476.19;5054956;28;20269;-73
2024/01/03 07:05:34;;;;;;;18.25;16.65;;;;;;;4.22;83.79;94492.25;5054500;28;20209;-69
2024/01/03 07:08:07;;;;;;;18.33;16.73;;;;;;;4.23;83.54;94496.59;5036292;28;20230;-69
2024/01/03 07:10:37;;;;;;;18.85;17.05;;;;;;;4.26;83.87;94479.56;5034718;28;20199;-69
2024/01/03 07:13:06;;;;;;;20.23;18.42;;;;;;;4.29;83.83;94482.44;5018924;28;20285;-72
2024/01/03 07:15:34;;;;;;;20.10;18.20;;;;;;;4.29;83.88;94474.25;5035109;28;20210;-71
2024/01/03 07:18:05;;;;;;;19.70;17.92;;;;;;;4.30;83.84;94486.75;5034475;28;20198;-71
2024/01/03 07:20:32;;;;;;;19.13;17.52;;;;;;;4.33;83.88;94485.31;5035022;28;20274;-72
2024/01/03 07:23:07;;;;;;;18.67;16.98;;;;;;;4.38;83.88;94495.25;5035322;28;20187;-71
2024/01/03 07:25:38;;;;;;;19.45;17.73;;;;;;;4.42;84.06;94496.19;5033924;28;20213;-71
2024/01/03 07:28:10;;;;;;;18.45;16.85;;;;;;;4.46;83.90;94502.59;5034557;28;20191;-71
2024/01/03 07:30:40;;;;;;;19.90;18.17;;;;;;;4.48;83.88;94500.34;5034437;28;20210;-71
2024/01/03 07:33:10;;;;;;;22.88;20.77;;;;;;;4.48;84.19;94492.16;5034186;28;20209;-70
2024/01/03 07:35:40;;;;;;;23.38;21.20;;;;;;;4.50;84.16;94492.59;5018349;28;20209;-70
2024/01/03 07:38:08;;;;;;;23.58;21.20;;;;;;;4.50;84.11;94496.16;5034491;28;20186;-71
2024/01/03 07:40:42;;;;;;;23.77;21.67;;;;;;;4.51;84.22;94510.63;5033567;28;20221;-71
2024/01/03 07:43:09;;;;;;;20.90;18.80;;;;;;;4.52;84.68;94491.16;5033953;28;20191;-73
2024/01/03 07:45:39;;;;;;;17.60;15.90;;;;;;;4.59;84.61;94505.09;5033695;28;20186;-73
2024/01/03 07:48:08;;;;;;;17.95;16.15;;;;;;;4.66;84.69;94495.59;5034448;28;20206;-73
2024/01/03 07:50:37;;;;;;;18.33;16.45;;;;;;;4.70;84.83;94486.41;5033740;28;20220;-73
2024/01/03 07:53:06;;;;;;;16.02;14.52;;;;;;;4.76;84.54;94476.09;5033964;28;20194;-73
2024/01/03 07:55:36;;;;;;;16.42;14.82;;;;;;;4.84;84.42;94467.06;5026070;28;20202;-71
2024/01/03 07:58:08;;;;;;;16.88;15.23;;;;;;;4.86;84.37;94475.69;5033952;28;20197;-71
2024/01/03 08:00:36;;;;;;;16.13;14.43;;;;;;;4.92;84.34;94474.38;5034410;28;20222;-72
2024/01/03 08:03:05;;;;;;;18.75;16.95;;;;;;;4.97;84.32;94476.13;5035077;28;20178;-72
2024/01/03 08:05:35;;;;;;;17.20;15.27;;;;;;;4.99;84.27;94480.13;5034072;28;20613;-72
2024/01/03 08:08:04;;;;;;;18.65;16.75;;;;;;;4.97;84.03;94471.44;5036950;28;20229;-71
2024/01/03 08:10:31;;;;;;;20.75;18.85;;;;;;;4.96;83.92;94463.59;5037856;28;20206;-71
2024/01/03 08:12:58;;;;;;;24.05;21.73;;;;;;;4.95;83.97;94462.78;5036558;28;20202;-72
2024/01/03 08:15:29;;;;;;;31.70;28.60;;;;;;;4.96;84.30;94469.06;5037670;28;20235;-71
2024/01/03 08:17:58;;;;;;;23.10;21.00;;;;;;;5.00;84.33;94467.25;5054743;28;20258;-70
2024/01/03 08:20:25;;;;;;;24.27;21.92;;;;;;;5.04;84.30;94463.53;5054368;28;20201;-72
2024/01/03 08:22:55;;;;;;;25.90;23.52;;;;;;;5.08;83.98;94466.41;5037599;28;20194;-72
2024/01/03 08:25:24;;;;;;;25.70;23.35;;;;;;;5.16;83.98;94467.50;5037181;28;20629;-73
2024/01/03 08:27:52;;;;;;;23.05;20.95;;;;;;;5.19;83.59;94467.63;5037444;28;20206;-72
2024/01/03 08:30:21;;;;;;;22.52;20.35;;;;;;;5.21;83.58;94476.28;5036960;28;20205;-72
2024/01/03 08:32:52;;;;;;;20.05;18.20;;;;;;;5.26;83.31;94447.94;5054915;28;20221;-72
2024/01/03 08:35:19;;;;;;;20.95;18.98;;;;;;;5.31;83.44;94453.22;5037068;28;20190;-72
2024/01/03 08:37:46;;;;;;;22.40;20.30;;;;;;;5.35;83.37;94445.94;5036428;28;20274;-70
2024/01/03 08:40:13;;;;;;;24.13;21.58;;;;;;;5.37;83.46;94440.91;5036654;28;20589;-69
2024/01/03 08:42:42;;;;;;;26.83;24.42;;;;;;;5.36;83.37;94446.72;5036343;28;20202;-70
2024/01/03 08:45:11;;;;;;;28.77;26.13;;;;;;;5.42;83.63;94457.13;5036611;28;20205;-69
2024/01/03 08:47:38;;;;;;;29.05;26.38;;;;;;;5.44;83.02;94451.31;5037038;28;20206;-72
2024/01/03 08:50:06;;;;;;;29.50;26.65;;;;;;;5.47;83.40;94442.44;5036803;28;20262;-69
2024/01/03 08:52:33;;;;;;;31.52;28.77;;;;;;;5.48;82.89;94447.59;5036459;28;20233;-69
2024/01/03 08:55:00;;;;;;;34.55;31.27;;;;;;;5.46;83.12;94438.13;5036335;28;20205;-69
2024/01/03 08:57:31;;;;;;;60.35;54.42;;;;;;;5.43;83.59;94425.91;5037116;28;20231;-69
2024/01/03 09:00:01;;;;;;;74.30;66.82;;;;;;;5.42;83.27;94427.06;5037009;28;20197;-70
2024/01/03 09:02:28;;;;;;;69.47;62.67;;;;;;;5.41;83.16;94422.72;5037639;28;20216;-70
2024/01/03 09:04:55;;;;;;;63.08;57.42;;;;;;;5.39;83.27;94427.72;5036929;28;20263;-71
2024/01/03 09:07:26;;;;;;;62.63;57.00;;;;;;;5.32;82.57;94425.50;5045004;28;20281;-71
2024/01/03 09:09:53;;;;;;;61.28;55.80;;;;;;;5.28;82.82;94410.13;5056608;28;20249;-69
2024/01/03 09:12:24;;;;;;;52.28;47.63;;;;;;;5.34;83.17;94419.72;5074000;27;20182;-69
2024/01/03 09:14:55;;;;;;;47.63;43.17;;;;;;;5.40;82.70;94407.44;5056932;28;20280;-69
2024/01/03 09:17:24;;;;;;;44.30;40.17;;;;;;;5.43;82.74;94404.03;5056261;28;20202;-69
2024/01/03 09:19:53;;;;;;;46.47;42.08;;;;;;;5.50;82.77;94400.75;5055339;28;20204;-72
2024/01/03 09:22:28;;;;;;;53.33;48.42;;;;;;;5.53;82.35;94392.66;5055482;28;20225;-72
2024/01/03 09:24:58;;;;;;;54.13;48.85;;;;;;;5.55;82.57;94409.56;5055694;28;20200;-73
2024/01/03 09:27:25;;;;;;;57.33;51.72;;;;;;;5.55;82.28;94406.00;5056522;28;20197;-72
2024/01/03 09:29:53;;;;;;;45.60;41.45;;;;;;;5.53;82.09;94406.34;5055718;28;20246;-70
2024/01/03 09:32:21;;;;;;;42.95;38.80;;;;;;;5.49;81.41;94394.47;5055408;28;20200;-71
2024/01/03 09:34:50;;;;;;;40.17;36.35;;;;;;;5.51;81.39;94385.94;5055529;28;20232;-71
2024/01/03 09:37:18;;;;;;;44.72;40.50;;;;;;;5.54;81.11;94390.72;5056442;28;20185;-71
2024/01/03 09:39:45;;;;;;;45.42;41.33;;;;;;;5.60;81.26;94392.13;5055754;28;20249;-70
2024/01/03 09:42:16;;;;;;;39.20;35.55;;;;;;;5.65;81.10;94391.09;5073131;28;20269;-72
2024/01/03 09:44:46;;;;;;;31.42;28.45;;;;;;;5.73;80.26;94382.00;5055990;28;20193;-71
2024/01/03 09:47:13;;;;;;;35.97;32.40;;;;;;;5.83;79.92;94387.03;5073314;28;20191;-71
2024/01/03 09:49:40;;;;;;;31.40;28.30;;;;;;;5.78;80.07;94390.00;5055811;28;20201;-74
2024/01/03 09:52:11;;;;;;;30.30;27.30;;;;;;;5.75;79.87;94399.69;5039307;28;20201;-74
2024/01/03 09:54:39;;;;;;;29.08;26.17;;;;;;;5.76;79.59;94409.47;5055228;28;20604;-74
2024/01/03 09:57:09;;;;;;;31.25;28.02;;;;;;;5.79;79.70;94402.53;5055899;28;20193;-74
2024/01/03 09:59:40;;;;;;;32.55;29.08;;;;;;;5.77;79.81;94394.69;5056092;28;20194;-74
2024/01/03 10:02:10;;;;;;;37.33;33.92;;;;;;;5.78;79.78;94390.00;5055220;28;20262;-73
2024/01/03 10:04:38;;;;;;;43.78;39.83;;;;;;;5.79;79.98;94386.91;5055002;28;20205;-75
2024/01/03 10:07:08;;;;;;;36.70;33.05;;;;;;;5.80;80.40;94382.25;5098357;27;20278;-75
2024/01/03 10:09:44;;;;;;;31.42;28.40;;;;;;;5.76;80.85;94378.59;5160740;27;20194;-74
2024/01/03 10:12:18;;;;;;;28.33;25.73;;;;;;;5.70;81.29;94378.03;5159973;27;20640;-74
2024/01/03 10:14:51;;;;;;;26.23;23.77;;;;;;;5.72;80.74;94373.00;5159979;27;20602;-72
2024/01/03 10:17:22;;;;;;;33.47;30.38;;;;;;;5.77;80.87;94370.06;5160535;27;20288;-73
2024/01/03 10:19:51;;;;;;;39.35;35.55;;;;;;;5.78;80.70;94368.13;5160414;27;20215;-71
2024/01/03 10:22:20;;;;;;;37.80;34.13;;;;;;;5.83;80.62;94367.09;5160759;27;20240;-70
2024/01/03 10:24:47;;;;;;;34.53;31.17;;;;;;;5.90;80.93;94376.34;5159921;27;20190;-71
2024/01/03 10:27:17;;;;;;;34.70;31.33;;;;;;;5.98;81.23;94377.41;5160255;27;20193;-71
2024/01/03 10:29:47;;;;;;;33.22;30.13;;;;;;;6.06;81.62;94362.00;5159823;27;20222;-70
2024/01/03 10:32:20;;;;;;;33.95;30.75;;;;;;;6.11;81.23;94357.13;5159970;27;20250;-71
2024/01/03 10:34:47;;;;;;;35.05;31.65;;;;;;;6.14;81.66;94345.47;5159666;27;20201;-72
2024/01/03 10:37:14;;;;;;;43.83;39.60;;;;;;;6.16;81.40;94334.97;5159787;27;20246;-72
2024/01/03 10:39:43;;;;;;;45.00;40.47;;;;;;;6.23;82.13;94326.97;5160570;27;20190;-72
2024/01/03 10:42:11;;;;;;;41.63;37.72;;;;;;;6.34;82.41;94330.06;5159502;27;20221;-72
2024/01/03 10:44:42;;;;;;;42.63;38.53;;;;;;;6.43;82.73;94319.78;5159695;27;20186;-71
2024/01/03 10:47:09;;;;;;;39.60;35.92;;;;;;;6.56;83.50;94326.03;5159480;27;20193;-72
2024/01/03 10:49:42;;;;;;;26.98;24.40;;;;;;;6.71;83.49;94316.28;5159532;27;20197;-73
2024/01/03 10:52:11;;;;;;;7.55;6.85;;;;;;;6.89;82.86;94316.81;5159493;27;20205;-75
2024/01/03 10:54:42;;;;;;;4.03;3.03;;;;;;;7.03;80.24;94325.44;5159381;27;20250;-73
2024/01/03 10:57:09;;;;;;;2.92;2.63;;;;;;;7.17;78.98;94314.09;5160247;27;20221;-74
2024/01/03 10:59:43;;;;;;;1.95;1.85;;;;;;;7.26;75.69;94319.41;5159978;27;20197;-75
2024/01/03 11:02:18;;;;;;;2.92;2.13;;;;;;;7.35;74.23;94318.13;5159868;27;20310;-76
2024/01/03 11:04:58;;;;;;;2.15;1.95;;;;;;;7.45;73.26;94308.59;5159255;27;20220;-76
2024/01/03 11:07:30;;;;;;;2.90;2.20;;;;;;;7.55;72.09;94305.31;5126629;27;20612;-75
2024/01/03 11:09:59;;;;;;;2.08;1.95;;;;;;;7.63;71.60;94301.63;5117931;28;20210;-76
2024/01/03 11:12:28;;;;;;;1.98;1.80;;;;;;;7.74;70.36;94299.16;5118493;28;20221;-78
2024/01/03 11:15:23;;;;;;;2.40;2.00;;;;;;;7.80;68.78;94305.16;5123140;28;20654;-78
2024/01/03 11:17:53;;;;;;;2.22;2.00;;;;;;;7.85;69.91;94310.41;5120871;28;20285;-73
2024/01/03 11:20:32;;;;;;;2.20;1.95;;;;;;;7.86;69.16;94301.78;5119591;28;20286;-75
2024/01/03 11:23:04;;;;;;;3.47;2.55;;;;;;;7.91;68.56;94298.78;5121158;28;20305;-74
2024/01/03 11:25:51;;;;;;;3.78;2.80;;;;;;;7.96;68.95;94289.50;5119313;28;20631;-74
2024/01/03 11:28:36;;;;;;;2.97;2.75;;;;;;;8.11;70.37;94279.66;5119052;28;20579;-75
2024/01/03 11:31:04;;;;;;;6.22;4.70;;;;;;;8.33;69.73;94270.75;5119870;28;20200;-76
2024/01/03 11:33:35;;;;;;;4.60;2.72;;;;;;;8.51;69.24;94279.41;5121931;28;20240;-75
2024/01/03 11:36:04;;;;;;;2.47;1.90;;;;;;;9.13;68.61;94283.06;5120409;28;20202;-74
2024/01/03 11:38:42;;;;;;;1.95;1.80;;;;;;;9.97;64.58;94273.19;5119274;28;20216;-74